sensor_id;sensor_type;location;lat;lon;timestamp;P1;durP1;ratioP1;P2;durP2;ratioP2
28934;SDS011;16044;52.726;-2.108;2022-11-20T00:01:19;18.27;;;6.70;;
28934;SDS011;16044;52.726;-2.108;2022-11-20T00:03:52;20.70;;;6.82;;
28934;SDS011;16044;52.726;-2.108;2022-11-20T00:06:21;18.17;;;7.07;;
28934;SDS011;16044;52.726;-2.108;2022-11-20T00:08:49;15.80;;;6.25;;
28934;SDS011;16044;52.726;-2.108;2022-11-20T00:11:17;22.77;;;6.82;;
28934;SDS011;16044;52.726;-2.108;2022-11-20T00:13:47;17.05;;;6.53;;
28934;SDS011;16044;52.726;-2.108;2022-11-20T00:16:18;21.40;;;6.20;;
28934;SDS011;16044;52.726;-2.108;2022-11-20T00:18:48;21.77;;;6.32;;
28934;SDS011;16044;52.726;-2.108;2022-11-20T00:21:16;18.90;;;5.88;;
28934;SDS011;16044;52.726;-2.108;2022-11-20T00:23:47;16.83;;;5.88;;
28934;SDS011;16044;52.726;-2.108;2022-11-20T00:26:17;18.27;;;5.47;;
28934;SDS011;16044;52.726;-2.108;2022-11-20T00:28:50;16.90;;;5.57;;
28934;SDS011;16044;52.726;-2.108;2022-11-20T00:31:22;13.88;;;5.65;;
28934;SDS011;16044;52.726;-2.108;2022-11-20T00:33:49;22.25;;;5.53;;
28934;SDS011;16044;52.726;-2.108;2022-11-20T00:36:17;15.38;;;5.50;;
28934;SDS011;16044;52.726;-2.108;2022-11-20T00:38:53;16.45;;;5.60;;
28934;SDS011;16044;52.726;-2.108;2022-11-20T00:41:21;19.95;;;5.90;;
28934;SDS011;16044;52.726;-2.108;2022-11-20T00:43:51;17.83;;;4.97;;
28934;SDS011;16044;52.726;-2.108;2022-11-20T00:46:20;19.67;;;5.15;;
28934;SDS011;16044;52.726;-2.108;2022-11-20T00:48:50;12.93;;;5.10;;
28934;SDS011;16044;52.726;-2.108;2022-11-20T00:51:18;21.42;;;5.88;;
28934;SDS011;16044;52.726;-2.108;2022-11-20T00:53:47;18.33;;;5.00;;
28934;SDS011;16044;52.726;-2.108;2022-11-20T00:56:15;12.95;;;4.80;;
28934;SDS011;16044;52.726;-2.108;2022-11-20T00:58:45;21.77;;;5.25;;
28934;SDS011;16044;52.726;-2.108;2022-11-20T01:01:19;14.85;;;4.13;;
28934;SDS011;16044;52.726;-2.108;2022-11-20T01:03:52;15.50;;;4.65;;
28934;SDS011;16044;52.726;-2.108;2022-11-20T01:06:24;15.27;;;4.57;;
28934;SDS011;16044;52.726;-2.108;2022-11-20T01:08:57;18.58;;;4.40;;
28934;SDS011;16044;52.726;-2.108;2022-11-20T01:11:27;13.88;;;4.25;;
28934;SDS011;16044;52.726;-2.108;2022-11-20T01:13:58;16.45;;;4.63;;
28934;SDS011;16044;52.726;-2.108;2022-11-20T01:16:31;17.67;;;5.00;;
28934;SDS011;16044;52.726;-2.108;2022-11-20T01:19:03;14.82;;;4.40;;
28934;SDS011;16044;52.726;-2.108;2022-11-20T01:21:36;18.17;;;5.38;;
28934;SDS011;16044;52.726;-2.108;2022-11-20T01:24:07;18.67;;;5.95;;
28934;SDS011;16044;52.726;-2.108;2022-11-20T01:26:38;16.30;;;5.80;;
28934;SDS011;16044;52.726;-2.108;2022-11-20T01:29:07;14.75;;;4.95;;
28934;SDS011;16044;52.726;-2.108;2022-11-20T01:31:41;16.75;;;5.38;;
28934;SDS011;16044;52.726;-2.108;2022-11-20T01:34:10;15.45;;;5.30;;
28934;SDS011;16044;52.726;-2.108;2022-11-20T01:36:41;16.83;;;5.18;;
28934;SDS011;16044;52.726;-2.108;2022-11-20T01:39:16;18.58;;;5.30;;
28934;SDS011;16044;52.726;-2.108;2022-11-20T01:41:50;16.45;;;5.00;;
28934;SDS011;16044;52.726;-2.108;2022-11-20T01:47:25;12.23;;;4.72;;
28934;SDS011;16044;52.726;-2.108;2022-11-20T01:52:56;15.70;;;4.65;;
28934;SDS011;16044;52.726;-2.108;2022-11-20T01:55:29;16.60;;;4.38;;
28934;SDS011;16044;52.726;-2.108;2022-11-20T01:58:01;17.00;;;4.95;;
28934;SDS011;16044;52.726;-2.108;2022-11-20T02:00:31;14.20;;;4.32;;
28934;SDS011;16044;52.726;-2.108;2022-11-20T02:02:59;15.18;;;4.60;;
28934;SDS011;16044;52.726;-2.108;2022-11-20T02:08:43;16.63;;;4.38;;
28934;SDS011;16044;52.726;-2.108;2022-11-20T02:11:09;13.77;;;4.40;;
28934;SDS011;16044;52.726;-2.108;2022-11-20T02:13:36;15.70;;;4.13;;
28934;SDS011;16044;52.726;-2.108;2022-11-20T02:16:17;16.95;;;4.28;;
28934;SDS011;16044;52.726;-2.108;2022-11-20T02:18:52;15.90;;;4.15;;
28934;SDS011;16044;52.726;-2.108;2022-11-20T02:21:27;16.85;;;4.38;;
28934;SDS011;16044;52.726;-2.108;2022-11-20T02:24:19;12.20;;;3.97;;
28934;SDS011;16044;52.726;-2.108;2022-11-20T02:29:44;14.77;;;5.10;;
28934;SDS011;16044;52.726;-2.108;2022-11-20T02:32:37;11.18;;;4.15;;
28934;SDS011;16044;52.726;-2.108;2022-11-20T02:35:09;10.93;;;3.83;;
28934;SDS011;16044;52.726;-2.108;2022-11-20T02:37:57;11.80;;;3.95;;
28934;SDS011;16044;52.726;-2.108;2022-11-20T02:40:27;15.68;;;4.47;;
28934;SDS011;16044;52.726;-2.108;2022-11-20T02:42:55;11.10;;;3.95;;
28934;SDS011;16044;52.726;-2.108;2022-11-20T02:45:23;13.25;;;4.30;;
28934;SDS011;16044;52.726;-2.108;2022-11-20T02:47:51;10.60;;;3.70;;
28934;SDS011;16044;52.726;-2.108;2022-11-20T02:50:18;10.45;;;3.70;;
28934;SDS011;16044;52.726;-2.108;2022-11-20T02:52:46;13.85;;;3.75;;
28934;SDS011;16044;52.726;-2.108;2022-11-20T02:55:13;16.15;;;4.10;;
28934;SDS011;16044;52.726;-2.108;2022-11-20T02:57:40;11.25;;;4.03;;
28934;SDS011;16044;52.726;-2.108;2022-11-20T03:00:10;11.93;;;3.55;;
28934;SDS011;16044;52.726;-2.108;2022-11-20T03:02:37;10.05;;;3.97;;
28934;SDS011;16044;52.726;-2.108;2022-11-20T03:05:04;10.02;;;3.75;;
28934;SDS011;16044;52.726;-2.108;2022-11-20T03:07:31;14.55;;;4.15;;
28934;SDS011;16044;52.726;-2.108;2022-11-20T03:09:58;9.27;;;3.85;;
28934;SDS011;16044;52.726;-2.108;2022-11-20T03:12:25;14.88;;;4.95;;
28934;SDS011;16044;52.726;-2.108;2022-11-20T03:14:52;8.90;;;4.22;;
28934;SDS011;16044;52.726;-2.108;2022-11-20T03:17:18;14.88;;;4.78;;
28934;SDS011;16044;52.726;-2.108;2022-11-20T03:19:46;11.52;;;4.20;;
28934;SDS011;16044;52.726;-2.108;2022-11-20T03:22:13;11.55;;;4.22;;
28934;SDS011;16044;52.726;-2.108;2022-11-20T03:24:40;11.10;;;4.32;;
28934;SDS011;16044;52.726;-2.108;2022-11-20T03:27:06;10.05;;;4.63;;
28934;SDS011;16044;52.726;-2.108;2022-11-20T03:29:34;9.75;;;4.35;;
28934;SDS011;16044;52.726;-2.108;2022-11-20T03:32:02;10.82;;;4.88;;
28934;SDS011;16044;52.726;-2.108;2022-11-20T03:34:29;9.30;;;4.60;;
28934;SDS011;16044;52.726;-2.108;2022-11-20T03:36:55;9.40;;;4.40;;
28934;SDS011;16044;52.726;-2.108;2022-11-20T03:39:22;10.77;;;4.65;;
28934;SDS011;16044;52.726;-2.108;2022-11-20T03:41:49;10.90;;;4.93;;
28934;SDS011;16044;52.726;-2.108;2022-11-20T03:44:17;9.93;;;4.63;;
28934;SDS011;16044;52.726;-2.108;2022-11-20T03:46:47;8.98;;;4.53;;
28934;SDS011;16044;52.726;-2.108;2022-11-20T03:49:14;6.35;;;3.92;;
28934;SDS011;16044;52.726;-2.108;2022-11-20T03:51:41;7.63;;;4.15;;
28934;SDS011;16044;52.726;-2.108;2022-11-20T03:54:08;8.98;;;3.83;;
28934;SDS011;16044;52.726;-2.108;2022-11-20T03:56:36;9.25;;;4.07;;
28934;SDS011;16044;52.726;-2.108;2022-11-20T03:59:05;9.38;;;4.43;;
28934;SDS011;16044;52.726;-2.108;2022-11-20T04:01:34;9.23;;;3.67;;
28934;SDS011;16044;52.726;-2.108;2022-11-20T04:04:04;9.27;;;4.22;;
28934;SDS011;16044;52.726;-2.108;2022-11-20T04:06:35;10.15;;;4.22;;
28934;SDS011;16044;52.726;-2.108;2022-11-20T04:09:04;14.63;;;4.20;;
28934;SDS011;16044;52.726;-2.108;2022-11-20T04:11:33;7.75;;;4.22;;
28934;SDS011;16044;52.726;-2.108;2022-11-20T04:14:04;12.70;;;4.82;;
28934;SDS011;16044;52.726;-2.108;2022-11-20T04:16:34;9.77;;;5.10;;
28934;SDS011;16044;52.726;-2.108;2022-11-20T04:19:03;10.13;;;5.18;;
28934;SDS011;16044;52.726;-2.108;2022-11-20T04:21:33;10.45;;;5.20;;
28934;SDS011;16044;52.726;-2.108;2022-11-20T04:24:00;9.20;;;4.53;;
28934;SDS011;16044;52.726;-2.108;2022-11-20T04:26:27;8.82;;;4.63;;
28934;SDS011;16044;52.726;-2.108;2022-11-20T04:28:55;10.10;;;5.00;;
28934;SDS011;16044;52.726;-2.108;2022-11-20T04:31:24;9.15;;;4.70;;
28934;SDS011;16044;52.726;-2.108;2022-11-20T04:33:53;7.45;;;4.43;;
28934;SDS011;16044;52.726;-2.108;2022-11-20T04:36:24;8.70;;;4.85;;
28934;SDS011;16044;52.726;-2.108;2022-11-20T04:38:53;7.28;;;4.65;;
28934;SDS011;16044;52.726;-2.108;2022-11-20T04:41:26;7.90;;;4.53;;
28934;SDS011;16044;52.726;-2.108;2022-11-20T04:43:56;7.40;;;3.90;;
28934;SDS011;16044;52.726;-2.108;2022-11-20T04:46:29;7.53;;;4.30;;
28934;SDS011;16044;52.726;-2.108;2022-11-20T04:49:05;7.03;;;4.00;;
28934;SDS011;16044;52.726;-2.108;2022-11-20T04:51:33;6.78;;;4.28;;
28934;SDS011;16044;52.726;-2.108;2022-11-20T04:54:00;8.68;;;4.55;;
28934;SDS011;16044;52.726;-2.108;2022-11-20T04:56:27;7.32;;;4.43;;
28934;SDS011;16044;52.726;-2.108;2022-11-20T04:58:54;7.97;;;5.15;;
28934;SDS011;16044;52.726;-2.108;2022-11-20T05:01:22;9.25;;;5.07;;
28934;SDS011;16044;52.726;-2.108;2022-11-20T05:03:51;11.75;;;5.60;;
28934;SDS011;16044;52.726;-2.108;2022-11-20T05:06:19;11.63;;;5.72;;
28934;SDS011;16044;52.726;-2.108;2022-11-20T05:08:47;12.40;;;5.60;;
28934;SDS011;16044;52.726;-2.108;2022-11-20T05:11:16;11.23;;;5.45;;
28934;SDS011;16044;52.726;-2.108;2022-11-20T05:13:46;9.88;;;5.25;;
28934;SDS011;16044;52.726;-2.108;2022-11-20T05:16:18;11.65;;;5.03;;
28934;SDS011;16044;52.726;-2.108;2022-11-20T05:18:50;11.88;;;5.53;;
28934;SDS011;16044;52.726;-2.108;2022-11-20T05:21:19;12.88;;;5.25;;
28934;SDS011;16044;52.726;-2.108;2022-11-20T05:23:47;9.20;;;4.80;;
28934;SDS011;16044;52.726;-2.108;2022-11-20T05:26:17;10.65;;;4.28;;
28934;SDS011;16044;52.726;-2.108;2022-11-20T05:28:47;10.52;;;3.72;;
28934;SDS011;16044;52.726;-2.108;2022-11-20T05:31:19;9.35;;;3.92;;
28934;SDS011;16044;52.726;-2.108;2022-11-20T05:33:53;6.78;;;3.70;;
28934;SDS011;16044;52.726;-2.108;2022-11-20T05:36:21;8.43;;;3.58;;
28934;SDS011;16044;52.726;-2.108;2022-11-20T05:38:48;8.70;;;3.75;;
28934;SDS011;16044;52.726;-2.108;2022-11-20T05:41:17;8.77;;;3.55;;
28934;SDS011;16044;52.726;-2.108;2022-11-20T05:43:46;6.53;;;3.55;;
28934;SDS011;16044;52.726;-2.108;2022-11-20T05:46:16;7.50;;;3.38;;
28934;SDS011;16044;52.726;-2.108;2022-11-20T05:48:53;13.35;;;3.83;;
28934;SDS011;16044;52.726;-2.108;2022-11-20T05:51:20;7.68;;;2.90;;
28934;SDS011;16044;52.726;-2.108;2022-11-20T05:53:47;9.68;;;3.60;;
28934;SDS011;16044;52.726;-2.108;2022-11-20T05:56:17;5.78;;;3.50;;
28934;SDS011;16044;52.726;-2.108;2022-11-20T05:58:47;7.95;;;3.10;;
28934;SDS011;16044;52.726;-2.108;2022-11-20T06:01:22;6.88;;;3.70;;
28934;SDS011;16044;52.726;-2.108;2022-11-20T06:03:52;5.22;;;3.67;;
28934;SDS011;16044;52.726;-2.108;2022-11-20T06:06:20;9.43;;;3.60;;
28934;SDS011;16044;52.726;-2.108;2022-11-20T06:08:47;5.60;;;3.53;;
28934;SDS011;16044;52.726;-2.108;2022-11-20T06:11:15;8.15;;;3.53;;
28934;SDS011;16044;52.726;-2.108;2022-11-20T06:13:43;6.90;;;3.42;;
28934;SDS011;16044;52.726;-2.108;2022-11-20T06:16:11;7.47;;;3.65;;
28934;SDS011;16044;52.726;-2.108;2022-11-20T06:18:40;6.35;;;3.47;;
28934;SDS011;16044;52.726;-2.108;2022-11-20T06:21:11;9.32;;;3.65;;
28934;SDS011;16044;52.726;-2.108;2022-11-20T06:23:41;8.38;;;3.15;;
28934;SDS011;16044;52.726;-2.108;2022-11-20T06:26:12;6.95;;;3.50;;
28934;SDS011;16044;52.726;-2.108;2022-11-20T06:28:43;7.28;;;3.70;;
28934;SDS011;16044;52.726;-2.108;2022-11-20T06:31:10;8.88;;;3.45;;
28934;SDS011;16044;52.726;-2.108;2022-11-20T06:33:40;8.23;;;3.78;;
28934;SDS011;16044;52.726;-2.108;2022-11-20T06:36:08;7.03;;;3.20;;
28934;SDS011;16044;52.726;-2.108;2022-11-20T06:38:38;8.20;;;3.83;;
28934;SDS011;16044;52.726;-2.108;2022-11-20T06:41:06;7.97;;;3.22;;
28934;SDS011;16044;52.726;-2.108;2022-11-20T06:43:37;7.90;;;3.17;;
28934;SDS011;16044;52.726;-2.108;2022-11-20T06:46:04;5.30;;;2.92;;
28934;SDS011;16044;52.726;-2.108;2022-11-20T06:48:31;9.43;;;3.53;;
28934;SDS011;16044;52.726;-2.108;2022-11-20T06:50:58;11.07;;;4.07;;
28934;SDS011;16044;52.726;-2.108;2022-11-20T06:53:25;11.25;;;4.07;;
28934;SDS011;16044;52.726;-2.108;2022-11-20T06:55:56;13.25;;;3.53;;
28934;SDS011;16044;52.726;-2.108;2022-11-20T06:58:27;10.82;;;3.30;;
28934;SDS011;16044;52.726;-2.108;2022-11-20T07:00:58;12.93;;;2.80;;
28934;SDS011;16044;52.726;-2.108;2022-11-20T07:03:37;16.20;;;2.80;;
28934;SDS011;16044;52.726;-2.108;2022-11-20T07:06:04;14.35;;;2.60;;
28934;SDS011;16044;52.726;-2.108;2022-11-20T07:08:32;10.65;;;2.00;;
28934;SDS011;16044;52.726;-2.108;2022-11-20T07:11:01;12.80;;;2.03;;
28934;SDS011;16044;52.726;-2.108;2022-11-20T07:13:33;12.25;;;2.03;;
28934;SDS011;16044;52.726;-2.108;2022-11-20T07:16:00;15.20;;;2.08;;
28934;SDS011;16044;52.726;-2.108;2022-11-20T07:18:31;19.63;;;2.78;;
28934;SDS011;16044;52.726;-2.108;2022-11-20T07:21:02;19.02;;;2.35;;
28934;SDS011;16044;52.726;-2.108;2022-11-20T07:23:31;13.60;;;2.28;;
28934;SDS011;16044;52.726;-2.108;2022-11-20T07:26:01;20.00;;;2.38;;
28934;SDS011;16044;52.726;-2.108;2022-11-20T07:28:33;16.88;;;2.28;;
28934;SDS011;16044;52.726;-2.108;2022-11-20T07:31:01;11.57;;;1.92;;
28934;SDS011;16044;52.726;-2.108;2022-11-20T07:33:28;11.48;;;2.00;;
28934;SDS011;16044;52.726;-2.108;2022-11-20T07:35:55;15.80;;;2.60;;
28934;SDS011;16044;52.726;-2.108;2022-11-20T07:38:25;17.50;;;2.17;;
28934;SDS011;16044;52.726;-2.108;2022-11-20T07:40:55;20.00;;;1.98;;
28934;SDS011;16044;52.726;-2.108;2022-11-20T07:43:24;11.10;;;1.80;;
28934;SDS011;16044;52.726;-2.108;2022-11-20T07:45:51;14.80;;;2.35;;
28934;SDS011;16044;52.726;-2.108;2022-11-20T07:48:18;17.30;;;2.20;;
28934;SDS011;16044;52.726;-2.108;2022-11-20T07:50:45;21.77;;;2.22;;
28934;SDS011;16044;52.726;-2.108;2022-11-20T07:53:12;17.95;;;2.17;;
28934;SDS011;16044;52.726;-2.108;2022-11-20T07:55:40;15.63;;;1.95;;
28934;SDS011;16044;52.726;-2.108;2022-11-20T07:58:07;18.88;;;2.17;;
28934;SDS011;16044;52.726;-2.108;2022-11-20T08:00:33;19.92;;;2.33;;
28934;SDS011;16044;52.726;-2.108;2022-11-20T08:03:02;16.08;;;2.40;;
28934;SDS011;16044;52.726;-2.108;2022-11-20T08:05:30;16.80;;;2.60;;
28934;SDS011;16044;52.726;-2.108;2022-11-20T08:07:57;20.00;;;3.10;;
28934;SDS011;16044;52.726;-2.108;2022-11-20T08:10:24;18.75;;;2.17;;
28934;SDS011;16044;52.726;-2.108;2022-11-20T08:12:52;16.20;;;2.28;;
28934;SDS011;16044;52.726;-2.108;2022-11-20T08:15:57;14.77;;;2.67;;
28934;SDS011;16044;52.726;-2.108;2022-11-20T08:18:24;23.15;;;4.18;;
28934;SDS011;16044;52.726;-2.108;2022-11-20T08:20:57;18.55;;;3.03;;
28934;SDS011;16044;52.726;-2.108;2022-11-20T08:23:28;22.17;;;3.28;;
28934;SDS011;16044;52.726;-2.108;2022-11-20T08:25:55;23.63;;;3.53;;
28934;SDS011;16044;52.726;-2.108;2022-11-20T08:28:22;32.10;;;4.85;;
28934;SDS011;16044;52.726;-2.108;2022-11-20T08:30:49;33.03;;;5.07;;
28934;SDS011;16044;52.726;-2.108;2022-11-20T08:33:16;34.75;;;4.82;;
28934;SDS011;16044;52.726;-2.108;2022-11-20T08:35:44;24.83;;;3.42;;
28934;SDS011;16044;52.726;-2.108;2022-11-20T08:38:11;25.08;;;3.85;;
28934;SDS011;16044;52.726;-2.108;2022-11-20T08:40:38;21.88;;;3.22;;
28934;SDS011;16044;52.726;-2.108;2022-11-20T08:43:05;24.88;;;3.85;;
28934;SDS011;16044;52.726;-2.108;2022-11-20T08:45:32;30.00;;;4.00;;
28934;SDS011;16044;52.726;-2.108;2022-11-20T08:48:03;28.67;;;4.18;;
28934;SDS011;16044;52.726;-2.108;2022-11-20T08:50:31;24.42;;;3.60;;
28934;SDS011;16044;52.726;-2.108;2022-11-20T08:53:05;25.33;;;3.75;;
28934;SDS011;16044;52.726;-2.108;2022-11-20T08:55:32;32.55;;;4.13;;
28934;SDS011;16044;52.726;-2.108;2022-11-20T08:58:05;23.67;;;3.33;;
28934;SDS011;16044;52.726;-2.108;2022-11-20T09:00:33;35.33;;;4.53;;
28934;SDS011;16044;52.726;-2.108;2022-11-20T09:03:01;31.05;;;3.88;;
28934;SDS011;16044;52.726;-2.108;2022-11-20T09:05:28;27.88;;;3.45;;
28934;SDS011;16044;52.726;-2.108;2022-11-20T09:07:56;34.83;;;4.60;;
28934;SDS011;16044;52.726;-2.108;2022-11-20T09:10:24;27.25;;;4.07;;
28934;SDS011;16044;52.726;-2.108;2022-11-20T09:12:52;25.98;;;3.75;;
28934;SDS011;16044;52.726;-2.108;2022-11-20T09:15:22;30.02;;;3.85;;
28934;SDS011;16044;52.726;-2.108;2022-11-20T09:17:50;31.77;;;4.70;;
28934;SDS011;16044;52.726;-2.108;2022-11-20T09:20:22;49.53;;;4.88;;
28934;SDS011;16044;52.726;-2.108;2022-11-20T09:22:48;28.70;;;4.07;;
28934;SDS011;16044;52.726;-2.108;2022-11-20T09:25:15;35.95;;;3.88;;
28934;SDS011;16044;52.726;-2.108;2022-11-20T09:27:42;30.35;;;3.60;;
28934;SDS011;16044;52.726;-2.108;2022-11-20T09:30:13;32.30;;;4.30;;
28934;SDS011;16044;52.726;-2.108;2022-11-20T09:32:44;27.80;;;3.92;;
28934;SDS011;16044;52.726;-2.108;2022-11-20T09:35:10;38.03;;;4.82;;
28934;SDS011;16044;52.726;-2.108;2022-11-20T09:37:38;25.75;;;3.78;;
28934;SDS011;16044;52.726;-2.108;2022-11-20T09:40:05;30.80;;;3.72;;
28934;SDS011;16044;52.726;-2.108;2022-11-20T09:45:50;35.47;;;3.97;;
28934;SDS011;16044;52.726;-2.108;2022-11-20T09:49:05;40.10;;;4.88;;
28934;SDS011;16044;52.726;-2.108;2022-11-20T09:52:02;44.40;;;5.45;;
28934;SDS011;16044;52.726;-2.108;2022-11-20T09:54:46;35.45;;;4.60;;
28934;SDS011;16044;52.726;-2.108;2022-11-20T09:57:15;31.98;;;4.63;;
28934;SDS011;16044;52.726;-2.108;2022-11-20T09:59:53;37.20;;;4.28;;
28934;SDS011;16044;52.726;-2.108;2022-11-20T10:02:30;39.00;;;4.97;;
28934;SDS011;16044;52.726;-2.108;2022-11-20T10:10:27;36.60;;;5.32;;
28934;SDS011;16044;52.726;-2.108;2022-11-20T10:30:43;39.38;;;4.55;;
28934;SDS011;16044;52.726;-2.108;2022-11-20T10:36:50;44.92;;;4.68;;
28934;SDS011;16044;52.726;-2.108;2022-11-20T10:38:59;38.53;;;4.80;;
28934;SDS011;16044;52.726;-2.108;2022-11-20T10:41:32;30.80;;;3.97;;
28934;SDS011;16044;52.726;-2.108;2022-11-20T10:44:49;38.85;;;4.53;;
28934;SDS011;16044;52.726;-2.108;2022-11-20T10:47:20;32.72;;;4.00;;
28934;SDS011;16044;52.726;-2.108;2022-11-20T10:49:52;36.83;;;4.43;;
28934;SDS011;16044;52.726;-2.108;2022-11-20T10:57:52;34.78;;;4.38;;
28934;SDS011;16044;52.726;-2.108;2022-11-20T11:00:33;36.10;;;4.57;;
28934;SDS011;16044;52.726;-2.108;2022-11-20T11:03:00;31.80;;;5.05;;
28934;SDS011;16044;52.726;-2.108;2022-11-20T11:05:33;31.55;;;4.50;;
28934;SDS011;16044;52.726;-2.108;2022-11-20T11:08:11;33.15;;;3.78;;
28934;SDS011;16044;52.726;-2.108;2022-11-20T11:10:51;33.47;;;4.32;;
28934;SDS011;16044;52.726;-2.108;2022-11-20T11:15:52;28.38;;;4.10;;
28934;SDS011;16044;52.726;-2.108;2022-11-20T11:18:26;27.65;;;4.25;;
28934;SDS011;16044;52.726;-2.108;2022-11-20T11:21:02;32.35;;;4.22;;
28934;SDS011;16044;52.726;-2.108;2022-11-20T11:26:02;34.35;;;4.00;;
28934;SDS011;16044;52.726;-2.108;2022-11-20T11:28:31;27.85;;;4.47;;
28934;SDS011;16044;52.726;-2.108;2022-11-20T11:30:59;33.72;;;5.53;;
28934;SDS011;16044;52.726;-2.108;2022-11-20T11:33:30;25.25;;;4.43;;
28934;SDS011;16044;52.726;-2.108;2022-11-20T11:36:03;31.60;;;4.45;;
28934;SDS011;16044;52.726;-2.108;2022-11-20T11:38:44;27.45;;;4.13;;
28934;SDS011;16044;52.726;-2.108;2022-11-20T11:41:16;29.73;;;4.15;;
28934;SDS011;16044;52.726;-2.108;2022-11-20T11:43:51;22.52;;;3.88;;
28934;SDS011;16044;52.726;-2.108;2022-11-20T11:46:53;26.58;;;4.05;;
28934;SDS011;16044;52.726;-2.108;2022-11-20T11:49:22;20.33;;;3.00;;
28934;SDS011;16044;52.726;-2.108;2022-11-20T12:00:22;30.33;;;3.90;;
28934;SDS011;16044;52.726;-2.108;2022-11-20T12:02:54;25.15;;;4.00;;
28934;SDS011;16044;52.726;-2.108;2022-11-20T12:06:01;24.65;;;4.03;;
28934;SDS011;16044;52.726;-2.108;2022-11-20T12:17:02;19.05;;;3.30;;
28934;SDS011;16044;52.726;-2.108;2022-11-20T12:19:30;23.80;;;3.70;;
28934;SDS011;16044;52.726;-2.108;2022-11-20T12:25:07;24.08;;;3.35;;
28934;SDS011;16044;52.726;-2.108;2022-11-20T12:30:27;18.85;;;3.22;;
28934;SDS011;16044;52.726;-2.108;2022-11-20T12:32:58;27.30;;;4.00;;
28934;SDS011;16044;52.726;-2.108;2022-11-20T12:38:52;28.85;;;4.00;;
28934;SDS011;16044;52.726;-2.108;2022-11-20T12:45:08;27.13;;;4.00;;
28934;SDS011;16044;52.726;-2.108;2022-11-20T13:05:01;23.48;;;3.88;;
28934;SDS011;16044;52.726;-2.108;2022-11-20T13:07:32;27.00;;;3.70;;
28934;SDS011;16044;52.726;-2.108;2022-11-20T13:10:02;21.40;;;4.28;;
28934;SDS011;16044;52.726;-2.108;2022-11-20T13:12:44;30.48;;;5.03;;
28934;SDS011;16044;52.726;-2.108;2022-11-20T13:15:21;23.23;;;4.93;;
28934;SDS011;16044;52.726;-2.108;2022-11-20T13:18:12;19.90;;;3.83;;
28934;SDS011;16044;52.726;-2.108;2022-11-20T13:20:43;25.70;;;4.82;;
28934;SDS011;16044;52.726;-2.108;2022-11-20T13:23:22;29.65;;;4.25;;
28934;SDS011;16044;52.726;-2.108;2022-11-20T13:26:13;25.25;;;4.10;;
28934;SDS011;16044;52.726;-2.108;2022-11-20T13:29:02;26.60;;;3.75;;
28934;SDS011;16044;52.726;-2.108;2022-11-20T13:31:39;22.92;;;3.50;;
28934;SDS011;16044;52.726;-2.108;2022-11-20T13:34:22;23.45;;;3.33;;
28934;SDS011;16044;52.726;-2.108;2022-11-20T13:36:56;21.80;;;4.07;;
28934;SDS011;16044;52.726;-2.108;2022-11-20T13:39:30;26.55;;;3.88;;
28934;SDS011;16044;52.726;-2.108;2022-11-20T13:42:01;24.48;;;4.43;;
28934;SDS011;16044;52.726;-2.108;2022-11-20T13:44:50;24.83;;;4.63;;
28934;SDS011;16044;52.726;-2.108;2022-11-20T13:47:25;21.58;;;3.22;;
28934;SDS011;16044;52.726;-2.108;2022-11-20T13:49:55;16.42;;;2.80;;
28934;SDS011;16044;52.726;-2.108;2022-11-20T13:55:53;17.00;;;3.00;;
28934;SDS011;16044;52.726;-2.108;2022-11-20T14:01:31;21.02;;;2.40;;
28934;SDS011;16044;52.726;-2.108;2022-11-20T14:03:59;17.77;;;3.17;;
28934;SDS011;16044;52.726;-2.108;2022-11-20T14:06:34;17.48;;;2.25;;
28934;SDS011;16044;52.726;-2.108;2022-11-20T14:09:13;8.75;;;1.40;;
28934;SDS011;16044;52.726;-2.108;2022-11-20T14:11:53;11.07;;;1.55;;
28934;SDS011;16044;52.726;-2.108;2022-11-20T14:14:20;5.38;;;1.20;;
28934;SDS011;16044;52.726;-2.108;2022-11-20T14:16:50;5.47;;;0.70;;
28934;SDS011;16044;52.726;-2.108;2022-11-20T14:24:48;2.10;;;0.68;;
28934;SDS011;16044;52.726;-2.108;2022-11-20T14:27:36;3.80;;;0.70;;
28934;SDS011;16044;52.726;-2.108;2022-11-20T14:30:12;4.75;;;0.63;;
28934;SDS011;16044;52.726;-2.108;2022-11-20T14:32:46;3.97;;;0.68;;
28934;SDS011;16044;52.726;-2.108;2022-11-20T14:35:16;2.95;;;0.90;;
28934;SDS011;16044;52.726;-2.108;2022-11-20T14:37:56;3.90;;;0.82;;
28934;SDS011;16044;52.726;-2.108;2022-11-20T14:40:28;5.43;;;1.00;;
28934;SDS011;16044;52.726;-2.108;2022-11-20T14:43:04;2.40;;;0.82;;
28934;SDS011;16044;52.726;-2.108;2022-11-20T14:45:57;1.48;;;0.60;;
28934;SDS011;16044;52.726;-2.108;2022-11-20T14:48:40;2.33;;;0.40;;
28934;SDS011;16044;52.726;-2.108;2022-11-20T14:51:22;2.88;;;0.60;;
28934;SDS011;16044;52.726;-2.108;2022-11-20T14:53:53;2.20;;;0.50;;
28934;SDS011;16044;52.726;-2.108;2022-11-20T14:56:21;2.17;;;0.70;;
28934;SDS011;16044;52.726;-2.108;2022-11-20T14:58:56;1.75;;;0.60;;
28934;SDS011;16044;52.726;-2.108;2022-11-20T15:01:28;3.85;;;0.90;;
28934;SDS011;16044;52.726;-2.108;2022-11-20T15:06:28;3.70;;;0.90;;
28934;SDS011;16044;52.726;-2.108;2022-11-20T15:08:57;3.75;;;1.10;;
28934;SDS011;16044;52.726;-2.108;2022-11-20T15:11:28;4.38;;;1.73;;
28934;SDS011;16044;52.726;-2.108;2022-11-20T15:14:02;8.73;;;1.20;;
28934;SDS011;16044;52.726;-2.108;2022-11-20T15:16:31;2.15;;;1.00;;
28934;SDS011;16044;52.726;-2.108;2022-11-20T15:18:59;4.32;;;1.30;;
28934;SDS011;16044;52.726;-2.108;2022-11-20T15:21:28;3.42;;;1.20;;
28934;SDS011;16044;52.726;-2.108;2022-11-20T15:23:55;3.30;;;0.95;;
28934;SDS011;16044;52.726;-2.108;2022-11-20T15:26:24;2.58;;;0.80;;
28934;SDS011;16044;52.726;-2.108;2022-11-20T15:28:53;3.80;;;1.02;;
28934;SDS011;16044;52.726;-2.108;2022-11-20T15:31:22;1.85;;;0.70;;
28934;SDS011;16044;52.726;-2.108;2022-11-20T15:33:50;2.00;;;0.90;;
28934;SDS011;16044;52.726;-2.108;2022-11-20T15:36:17;1.63;;;0.75;;
28934;SDS011;16044;52.726;-2.108;2022-11-20T15:38:44;2.78;;;0.70;;
28934;SDS011;16044;52.726;-2.108;2022-11-20T15:41:11;4.28;;;1.58;;
28934;SDS011;16044;52.726;-2.108;2022-11-20T15:43:38;2.35;;;1.05;;
28934;SDS011;16044;52.726;-2.108;2022-11-20T15:46:11;3.92;;;1.23;;
28934;SDS011;16044;52.726;-2.108;2022-11-20T15:48:42;3.15;;;0.98;;
28934;SDS011;16044;52.726;-2.108;2022-11-20T15:53:49;5.88;;;2.03;;
28934;SDS011;16044;52.726;-2.108;2022-11-20T15:56:16;4.10;;;1.80;;
28934;SDS011;16044;52.726;-2.108;2022-11-20T15:58:43;4.50;;;1.65;;
28934;SDS011;16044;52.726;-2.108;2022-11-20T16:01:13;4.90;;;1.15;;
28934;SDS011;16044;52.726;-2.108;2022-11-20T16:03:44;5.72;;;1.10;;
28934;SDS011;16044;52.726;-2.108;2022-11-20T16:06:11;4.10;;;0.90;;
28934;SDS011;16044;52.726;-2.108;2022-11-20T16:08:39;4.35;;;1.10;;
28934;SDS011;16044;52.726;-2.108;2022-11-20T16:11:05;6.72;;;1.30;;
28934;SDS011;16044;52.726;-2.108;2022-11-20T16:13:32;5.18;;;1.42;;
28934;SDS011;16044;52.726;-2.108;2022-11-20T16:18:50;7.55;;;2.38;;
28934;SDS011;16044;52.726;-2.108;2022-11-20T16:21:16;6.82;;;2.65;;
28934;SDS011;16044;52.726;-2.108;2022-11-20T16:23:43;4.72;;;2.20;;
28934;SDS011;16044;52.726;-2.108;2022-11-20T16:26:19;5.97;;;1.95;;
28934;SDS011;16044;52.726;-2.108;2022-11-20T16:28:47;6.55;;;2.20;;
28934;SDS011;16044;52.726;-2.108;2022-11-20T16:31:15;7.60;;;2.40;;
28934;SDS011;16044;52.726;-2.108;2022-11-20T16:33:50;7.25;;;3.08;;
28934;SDS011;16044;52.726;-2.108;2022-11-20T16:36:20;5.60;;;2.65;;
28934;SDS011;16044;52.726;-2.108;2022-11-20T16:38:56;4.97;;;2.22;;
28934;SDS011;16044;52.726;-2.108;2022-11-20T16:41:27;5.57;;;1.98;;
28934;SDS011;16044;52.726;-2.108;2022-11-20T16:43:57;7.40;;;1.77;;
28934;SDS011;16044;52.726;-2.108;2022-11-20T16:46:32;7.72;;;2.80;;
28934;SDS011;16044;52.726;-2.108;2022-11-20T16:49:00;7.45;;;2.92;;